チューリッヒ の空港の天気 - METARとTAF

チューリヒ国際空港 ( LSZH / ZRH ) - スイス チューリッヒ
飛行場実況気象(Metar)
観測時間11/17 18:50 CET (11/17 17:50 UTC)
風向・風速北西 2m/s
視程10km以上
天気現象
なし
気温4℃
湿度75%
気圧1023hPa
METARLSZH 171750Z 32004KT CAVOK 04/M00 Q1023 NOSIG
過去の天気等 Google飛行場航空写真 Wunderground天気予報

過去48時間のMETAR

飛行場予報(TAF)
発表時間: 11/17 18:25 CET (11/17 17:25 UTC)
予報対象時間: 17日19時 CET ~ 19日1時 CET
風向・風速北北西 2m/s
視程10km以上
なし
17日23時 CET ~ 18日2時 CET に徐々に
視程10km以上
全天の8割程度の雲 雲底高度 520m
18日1時 CET から 確率 40% で
全天の8割程度の雲 雲底高度 370m
18日9時 CET ~ 18日12時 CET に徐々に
風向・風速北東 5m/s
18日14時 CET から 確率 40% で
視程10km以上
なし
18日17時 CET ~ 18日19時 CET に徐々に
風向・風速北北東 3m/s
TAF LSZH 171725Z 1718/1824 33004KT CAVOK TX04/1815Z TNM01/1801Z
BECMG 1722/1801 9999 BKN017
PROB40 1800/1809 BKN012
BECMG 1808/1811 05009KT
PROB40 1813/1818 CAVOK
BECMG 1816/1818 02005KT